sensor_id;sensor_type;location;lat;lon;timestamp;pressure;altitude;pressure_sealevel;temperature;humidity
32761;BME280;19126;47.472;7.850;2023-02-24T00:01:11;96147.91;;;1.63;40.09
32761;BME280;19126;47.472;7.850;2023-02-24T00:03:43;96144.22;;;1.66;39.52
32761;BME280;19126;47.472;7.850;2023-02-24T00:06:13;96141.53;;;1.67;38.44
32761;BME280;19126;47.472;7.850;2023-02-24T00:08:42;96136.88;;;1.61;38.54
32761;BME280;19126;47.472;7.850;2023-02-24T00:11:12;96131.25;;;1.56;39.10
32761;BME280;19126;47.472;7.850;2023-02-24T00:13:48;96135.84;;;1.52;39.56
32761;BME280;19126;47.472;7.850;2023-02-24T00:16:17;96141.72;;;1.54;39.37
32761;BME280;19126;47.472;7.850;2023-02-24T00:18:56;96130.41;;;1.45;39.44
32761;BME280;19126;47.472;7.850;2023-02-24T00:21:26;96140.88;;;1.44;39.99
32761;BME280;19126;47.472;7.850;2023-02-24T00:23:59;96132.66;;;1.39;39.85
32761;BME280;19126;47.472;7.850;2023-02-24T00:33:07;96105.22;;;1.26;38.60
32761;BME280;19126;47.472;7.850;2023-02-24T00:36:10;96109.81;;;1.23;37.64
32761;BME280;19126;47.472;7.850;2023-02-24T00:39:03;96114.88;;;1.24;38.23
32761;BME280;19126;47.472;7.850;2023-02-24T00:41:52;96114.63;;;1.27;36.65
32761;BME280;19126;47.472;7.850;2023-02-24T00:44:30;96122.47;;;1.37;35.68
32761;BME280;19126;47.472;7.850;2023-02-24T00:47:04;96109.31;;;1.29;35.21
32761;BME280;19126;47.472;7.850;2023-02-24T00:49:41;96107.66;;;1.18;36.62
32761;BME280;19126;47.472;7.850;2023-02-24T00:52:10;96116.38;;;1.27;35.90
32761;BME280;19126;47.472;7.850;2023-02-24T00:54:47;96119.50;;;1.21;36.31
32761;BME280;19126;47.472;7.850;2023-02-24T00:57:15;96121.81;;;1.24;35.80
32761;BME280;19126;47.472;7.850;2023-02-24T00:59:52;96103.16;;;1.20;34.66
32761;BME280;19126;47.472;7.850;2023-02-24T01:02:37;96120.25;;;1.33;34.23
32761;BME280;19126;47.472;7.850;2023-02-24T01:05:16;96110.25;;;1.28;34.53
32761;BME280;19126;47.472;7.850;2023-02-24T01:07:46;96117.72;;;1.21;35.05
32761;BME280;19126;47.472;7.850;2023-02-24T01:10:26;96111.44;;;1.14;35.89
32761;BME280;19126;47.472;7.850;2023-02-24T01:13:02;96096.50;;;0.96;36.06
32761;BME280;19126;47.472;7.850;2023-02-24T01:15:31;96111.31;;;0.94;37.18
32761;BME280;19126;47.472;7.850;2023-02-24T01:18:03;96107.91;;;0.94;36.73
32761;BME280;19126;47.472;7.850;2023-02-24T01:20:37;96101.47;;;0.88;36.60
32761;BME280;19126;47.472;7.850;2023-02-24T01:23:06;96090.13;;;0.79;36.13
32761;BME280;19126;47.472;7.850;2023-02-24T01:25:34;96105.81;;;0.87;36.44
32761;BME280;19126;47.472;7.850;2023-02-24T01:28:09;96103.63;;;0.83;36.05
32761;BME280;19126;47.472;7.850;2023-02-24T01:30:41;96101.28;;;0.80;36.45
32761;BME280;19126;47.472;7.850;2023-02-24T01:33:11;96109.50;;;0.85;36.56
32761;BME280;19126;47.472;7.850;2023-02-24T01:35:45;96095.53;;;0.76;36.13
32761;BME280;19126;47.472;7.850;2023-02-24T01:38:18;96096.19;;;0.68;35.74
32761;BME280;19126;47.472;7.850;2023-02-24T01:40:55;96101.16;;;0.60;37.91
32761;BME280;19126;47.472;7.850;2023-02-24T01:43:25;96097.19;;;0.56;37.36
32761;BME280;19126;47.472;7.850;2023-02-24T01:45:54;96104.81;;;0.57;37.66
32761;BME280;19126;47.472;7.850;2023-02-24T01:48:41;96089.00;;;0.51;36.85
32761;BME280;19126;47.472;7.850;2023-02-24T01:51:15;96097.03;;;0.57;36.45
32761;BME280;19126;47.472;7.850;2023-02-24T01:53:51;96084.00;;;0.59;35.73
32761;BME280;19126;47.472;7.850;2023-02-24T01:56:19;96087.28;;;0.61;34.60
32761;BME280;19126;47.472;7.850;2023-02-24T01:58:55;96097.00;;;0.69;34.10
32761;BME280;19126;47.472;7.850;2023-02-24T02:01:28;96091.38;;;0.64;33.46
32761;BME280;19126;47.472;7.850;2023-02-24T02:03:59;96102.06;;;0.70;33.17
32761;BME280;19126;47.472;7.850;2023-02-24T02:06:31;96095.09;;;0.71;33.41
32761;BME280;19126;47.472;7.850;2023-02-24T02:08:58;96090.06;;;0.69;33.12
32761;BME280;19126;47.472;7.850;2023-02-24T02:11:26;96088.47;;;0.78;32.32
32761;BME280;19126;47.472;7.850;2023-02-24T02:13:53;96087.16;;;0.84;31.26
32761;BME280;19126;47.472;7.850;2023-02-24T02:22:25;96096.81;;;0.82;31.07
32761;BME280;19126;47.472;7.850;2023-02-24T02:25:00;96090.00;;;0.81;30.23
32761;BME280;19126;47.472;7.850;2023-02-24T02:27:50;96091.91;;;0.79;29.71
32761;BME280;19126;47.472;7.850;2023-02-24T02:30:46;96092.34;;;0.84;29.14
32761;BME280;19126;47.472;7.850;2023-02-24T02:33:58;96093.22;;;0.94;27.77
32761;BME280;19126;47.472;7.850;2023-02-24T02:36:32;96093.50;;;1.01;27.36
32761;BME280;19126;47.472;7.850;2023-02-24T02:39:06;96088.09;;;1.04;27.28
32761;BME280;19126;47.472;7.850;2023-02-24T02:41:45;96095.06;;;1.13;26.65
32761;BME280;19126;47.472;7.850;2023-02-24T02:44:14;96087.19;;;1.15;25.76
32761;BME280;19126;47.472;7.850;2023-02-24T02:46:46;96094.88;;;1.26;25.50
32761;BME280;19126;47.472;7.850;2023-02-24T02:49:18;96089.56;;;1.28;24.81
32761;BME280;19126;47.472;7.850;2023-02-24T02:51:48;96087.94;;;1.27;24.40
32761;BME280;19126;47.472;7.850;2023-02-24T02:54:21;96085.34;;;1.27;24.66
32761;BME280;19126;47.472;7.850;2023-02-24T02:56:55;96094.06;;;1.26;24.14
32761;BME280;19126;47.472;7.850;2023-02-24T02:59:25;96073.44;;;1.14;23.78
32761;BME280;19126;47.472;7.850;2023-02-24T03:01:55;96091.34;;;1.27;22.61
32761;BME280;19126;47.472;7.850;2023-02-24T03:04:38;96093.94;;;1.27;22.40
32761;BME280;19126;47.472;7.850;2023-02-24T03:07:08;96091.19;;;1.29;21.92
32761;BME280;19126;47.472;7.850;2023-02-24T03:09:39;96094.38;;;1.33;21.98
32761;BME280;19126;47.472;7.850;2023-02-24T03:12:09;96092.72;;;1.31;21.56
32761;BME280;19126;47.472;7.850;2023-02-24T03:14:39;96091.09;;;1.30;21.04
32761;BME280;19126;47.472;7.850;2023-02-24T03:17:14;96088.63;;;1.29;21.01
32761;BME280;19126;47.472;7.850;2023-02-24T03:19:43;96087.22;;;1.25;20.18
32761;BME280;19126;47.472;7.850;2023-02-24T03:22:16;96084.91;;;1.22;20.75
32761;BME280;19126;47.472;7.850;2023-02-24T03:24:48;96087.38;;;1.23;20.21
32761;BME280;19126;47.472;7.850;2023-02-24T03:27:16;96080.41;;;1.24;19.66
32761;BME280;19126;47.472;7.850;2023-02-24T03:29:47;96082.63;;;1.28;19.79
32761;BME280;19126;47.472;7.850;2023-02-24T03:32:19;96076.63;;;1.28;19.67
32761;BME280;19126;47.472;7.850;2023-02-24T03:34:55;96076.25;;;1.33;19.40
32761;BME280;19126;47.472;7.850;2023-02-24T03:37:25;96061.69;;;1.31;18.74
32761;BME280;19126;47.472;7.850;2023-02-24T03:39:56;96067.97;;;1.39;19.31
32761;BME280;19126;47.472;7.850;2023-02-24T03:42:25;96059.94;;;1.42;18.48
32761;BME280;19126;47.472;7.850;2023-02-24T03:44:54;96061.19;;;1.48;18.51
32761;BME280;19126;47.472;7.850;2023-02-24T03:47:23;96059.31;;;1.50;17.95
32761;BME280;19126;47.472;7.850;2023-02-24T03:49:50;96055.75;;;1.51;17.93
32761;BME280;19126;47.472;7.850;2023-02-24T03:52:25;96049.63;;;1.52;17.21
32761;BME280;19126;47.472;7.850;2023-02-24T03:55:15;96046.78;;;1.55;17.95
32761;BME280;19126;47.472;7.850;2023-02-24T03:57:50;96048.41;;;1.56;17.53
32761;BME280;19126;47.472;7.850;2023-02-24T04:00:28;96048.97;;;1.59;17.04
32761;BME280;19126;47.472;7.850;2023-02-24T04:03:11;96050.34;;;1.64;17.39
32761;BME280;19126;47.472;7.850;2023-02-24T04:05:43;96045.72;;;1.67;16.70
32761;BME280;19126;47.472;7.850;2023-02-24T04:08:14;96047.22;;;1.70;16.39
32761;BME280;19126;47.472;7.850;2023-02-24T04:10:47;96045.03;;;1.75;16.44
32761;BME280;19126;47.472;7.850;2023-02-24T04:13:25;96049.16;;;1.87;16.83
32761;BME280;19126;47.472;7.850;2023-02-24T04:16:06;96046.72;;;1.96;16.37
32761;BME280;19126;47.472;7.850;2023-02-24T04:18:36;96044.25;;;2.04;16.67
32761;BME280;19126;47.472;7.850;2023-02-24T04:21:04;96032.41;;;2.11;15.85
32761;BME280;19126;47.472;7.850;2023-02-24T04:23:35;96036.25;;;2.17;15.86
32761;BME280;19126;47.472;7.850;2023-02-24T04:26:04;96036.22;;;2.27;16.91
32761;BME280;19126;47.472;7.850;2023-02-24T04:28:32;96031.44;;;2.32;16.58
32761;BME280;19126;47.472;7.850;2023-02-24T04:31:02;96029.25;;;2.37;15.81
32761;BME280;19126;47.472;7.850;2023-02-24T04:33:31;96023.00;;;2.30;16.75
32761;BME280;19126;47.472;7.850;2023-02-24T04:35:59;96026.00;;;2.25;16.18
32761;BME280;19126;47.472;7.850;2023-02-24T04:38:26;96023.53;;;2.24;15.86
32761;BME280;19126;47.472;7.850;2023-02-24T04:40:55;96013.72;;;2.17;16.52
32761;BME280;19126;47.472;7.850;2023-02-24T04:43:22;96011.13;;;2.17;16.01
32761;BME280;19126;47.472;7.850;2023-02-24T04:45:49;96014.94;;;2.13;17.07
32761;BME280;19126;47.472;7.850;2023-02-24T04:48:17;96015.38;;;2.09;16.91
32761;BME280;19126;47.472;7.850;2023-02-24T04:50:45;96021.78;;;2.04;16.89
32761;BME280;19126;47.472;7.850;2023-02-24T04:53:14;96015.09;;;2.02;16.59
32761;BME280;19126;47.472;7.850;2023-02-24T04:55:44;96014.28;;;2.01;16.53
32761;BME280;19126;47.472;7.850;2023-02-24T04:58:16;96007.59;;;1.99;16.47
32761;BME280;19126;47.472;7.850;2023-02-24T05:00:45;96005.56;;;2.02;16.35
32761;BME280;19126;47.472;7.850;2023-02-24T05:03:14;96010.59;;;2.04;16.28
32761;BME280;19126;47.472;7.850;2023-02-24T05:05:47;95996.41;;;2.08;16.65
32761;BME280;19126;47.472;7.850;2023-02-24T05:08:17;96001.47;;;2.10;16.33
32761;BME280;19126;47.472;7.850;2023-02-24T05:10:45;95997.91;;;2.11;17.05
32761;BME280;19126;47.472;7.850;2023-02-24T05:13:15;95993.41;;;2.13;16.41
32761;BME280;19126;47.472;7.850;2023-02-24T05:15:43;96003.09;;;2.11;16.70
32761;BME280;19126;47.472;7.850;2023-02-24T05:18:12;95994.38;;;2.12;16.60
32761;BME280;19126;47.472;7.850;2023-02-24T05:20:42;96001.47;;;2.10;16.45
32761;BME280;19126;47.472;7.850;2023-02-24T05:23:37;95994.50;;;2.10;16.92
32761;BME280;19126;47.472;7.850;2023-02-24T05:26:06;95987.00;;;2.07;16.52
32761;BME280;19126;47.472;7.850;2023-02-24T05:28:35;95981.81;;;2.07;16.55
32761;BME280;19126;47.472;7.850;2023-02-24T05:31:05;95979.50;;;2.04;16.86
32761;BME280;19126;47.472;7.850;2023-02-24T05:33:33;95981.97;;;2.05;16.36
32761;BME280;19126;47.472;7.850;2023-02-24T05:36:02;95975.94;;;2.05;16.77
32761;BME280;19126;47.472;7.850;2023-02-24T05:38:37;95983.44;;;2.08;16.71
32761;BME280;19126;47.472;7.850;2023-02-24T05:41:09;95990.94;;;2.11;17.22
32761;BME280;19126;47.472;7.850;2023-02-24T05:43:43;95992.19;;;2.17;17.73
32761;BME280;19126;47.472;7.850;2023-02-24T05:46:13;95986.06;;;2.18;16.95
32761;BME280;19126;47.472;7.850;2023-02-24T05:48:40;95984.25;;;2.18;17.85
32761;BME280;19126;47.472;7.850;2023-02-24T05:51:08;95985.91;;;2.19;17.32
32761;BME280;19126;47.472;7.850;2023-02-24T05:53:37;95977.16;;;2.20;16.53
32761;BME280;19126;47.472;7.850;2023-02-24T05:56:10;95974.31;;;2.24;17.39
32761;BME280;19126;47.472;7.850;2023-02-24T05:58:37;95969.13;;;2.24;17.83
32761;BME280;19126;47.472;7.850;2023-02-24T06:01:13;95961.22;;;2.25;17.67
32761;BME280;19126;47.472;7.850;2023-02-24T06:03:44;95967.22;;;2.26;17.47
32761;BME280;19126;47.472;7.850;2023-02-24T06:06:13;95966.25;;;2.27;17.24
32761;BME280;19126;47.472;7.850;2023-02-24T06:08:49;95961.22;;;2.25;18.05
32761;BME280;19126;47.472;7.850;2023-02-24T06:11:23;95960.25;;;2.26;17.36
32761;BME280;19126;47.472;7.850;2023-02-24T06:13:50;95950.69;;;2.27;16.92
32761;BME280;19126;47.472;7.850;2023-02-24T06:16:23;95953.00;;;2.30;17.31
32761;BME280;19126;47.472;7.850;2023-02-24T06:18:51;95954.66;;;2.31;18.00
32761;BME280;19126;47.472;7.850;2023-02-24T06:21:21;95949.47;;;2.31;17.31
32761;BME280;19126;47.472;7.850;2023-02-24T06:23:57;95950.97;;;2.33;18.08
32761;BME280;19126;47.472;7.850;2023-02-24T06:26:26;95955.06;;;2.36;18.19
32761;BME280;19126;47.472;7.850;2023-02-24T06:28:54;95954.66;;;2.41;17.31
32761;BME280;19126;47.472;7.850;2023-02-24T06:31:24;95961.19;;;2.45;17.67
32761;BME280;19126;47.472;7.850;2023-02-24T06:33:52;95962.66;;;2.47;17.84
32761;BME280;19126;47.472;7.850;2023-02-24T06:36:20;95954.75;;;2.49;17.84
32761;BME280;19126;47.472;7.850;2023-02-24T06:38:55;95946.72;;;2.52;18.44
32761;BME280;19126;47.472;7.850;2023-02-24T06:41:22;95952.28;;;2.57;18.78
32761;BME280;19126;47.472;7.850;2023-02-24T06:43:50;95952.13;;;2.59;17.79
32761;BME280;19126;47.472;7.850;2023-02-24T06:46:17;95949.13;;;2.63;18.38
32761;BME280;19126;47.472;7.850;2023-02-24T06:48:46;95950.47;;;2.68;18.00
32761;BME280;19126;47.472;7.850;2023-02-24T06:51:14;95935.88;;;2.67;17.89
32761;BME280;19126;47.472;7.850;2023-02-24T06:53:54;95938.88;;;2.72;18.32
32761;BME280;19126;47.472;7.850;2023-02-24T06:56:22;95930.69;;;2.76;17.71
32761;BME280;19126;47.472;7.850;2023-02-24T06:58:51;95933.66;;;2.82;19.19
32761;BME280;19126;47.472;7.850;2023-02-24T07:01:22;95927.22;;;2.86;18.74
32761;BME280;19126;47.472;7.850;2023-02-24T07:03:52;95938.78;;;2.91;17.98
32761;BME280;19126;47.472;7.850;2023-02-24T07:06:43;95934.81;;;2.97;18.46
32761;BME280;19126;47.472;7.850;2023-02-24T07:09:12;95934.53;;;3.00;18.12
32761;BME280;19126;47.472;7.850;2023-02-24T07:11:41;95929.72;;;3.05;18.53
32761;BME280;19126;47.472;7.850;2023-02-24T07:14:11;95922.16;;;3.12;18.98
32761;BME280;19126;47.472;7.850;2023-02-24T07:16:39;95922.56;;;3.17;19.47
32761;BME280;19126;47.472;7.850;2023-02-24T07:19:13;95926.75;;;3.28;19.41
32761;BME280;19126;47.472;7.850;2023-02-24T07:21:42;95925.31;;;3.34;18.79
32761;BME280;19126;47.472;7.850;2023-02-24T07:24:15;95923.66;;;3.43;19.85
32761;BME280;19126;47.472;7.850;2023-02-24T07:26:54;95930.56;;;3.52;19.55
32761;BME280;19126;47.472;7.850;2023-02-24T07:29:22;95919.41;;;3.60;19.36
32761;BME280;19126;47.472;7.850;2023-02-24T07:31:50;95930.25;;;3.73;19.34
32761;BME280;19126;47.472;7.850;2023-02-24T07:34:22;95915.03;;;3.78;20.08
32761;BME280;19126;47.472;7.850;2023-02-24T07:36:50;95914.75;;;3.81;19.82
32761;BME280;19126;47.472;7.850;2023-02-24T07:39:18;95921.13;;;3.87;20.26
32761;BME280;19126;47.472;7.850;2023-02-24T07:41:45;95914.38;;;3.94;19.90
32761;BME280;19126;47.472;7.850;2023-02-24T07:44:14;95910.19;;;4.02;20.24
32761;BME280;19126;47.472;7.850;2023-02-24T07:46:42;95910.13;;;4.12;20.16
32761;BME280;19126;47.472;7.850;2023-02-24T07:49:14;95906.41;;;4.14;19.76
32761;BME280;19126;47.472;7.850;2023-02-24T07:51:45;95908.09;;;4.23;19.74
32761;BME280;19126;47.472;7.850;2023-02-24T07:54:17;95900.91;;;4.17;19.96
32761;BME280;19126;47.472;7.850;2023-02-24T07:56:45;95896.22;;;4.21;19.99
32761;BME280;19126;47.472;7.850;2023-02-24T07:59:21;95903.91;;;4.31;19.99
32761;BME280;19126;47.472;7.850;2023-02-24T08:01:48;95898.56;;;4.32;20.18
32761;BME280;19126;47.472;7.850;2023-02-24T08:04:18;95889.81;;;4.33;19.86
32761;BME280;19126;47.472;7.850;2023-02-24T08:06:49;95885.44;;;4.42;19.32
32761;BME280;19126;47.472;7.850;2023-02-24T08:09:22;95886.41;;;4.41;19.89
32761;BME280;19126;47.472;7.850;2023-02-24T08:12:06;95885.31;;;4.44;19.29
32761;BME280;19126;47.472;7.850;2023-02-24T08:14:34;95890.38;;;4.53;19.35
32761;BME280;19126;47.472;7.850;2023-02-24T08:17:09;95888.09;;;4.50;19.82
32761;BME280;19126;47.472;7.850;2023-02-24T08:19:41;95894.13;;;4.51;19.45
32761;BME280;19126;47.472;7.850;2023-02-24T08:22:10;95890.25;;;4.55;18.93
32761;BME280;19126;47.472;7.850;2023-02-24T08:24:45;95894.03;;;4.69;19.68
32761;BME280;19126;47.472;7.850;2023-02-24T08:27:21;95891.47;;;4.77;19.09
32761;BME280;19126;47.472;7.850;2023-02-24T08:29:50;95892.75;;;4.73;18.79
32761;BME280;19126;47.472;7.850;2023-02-24T08:32:27;95895.25;;;4.83;18.67
32761;BME280;19126;47.472;7.850;2023-02-24T08:34:59;95887.81;;;4.96;18.86
32761;BME280;19126;47.472;7.850;2023-02-24T08:37:31;95871.41;;;5.04;18.49
32761;BME280;19126;47.472;7.850;2023-02-24T08:40:10;95872.06;;;5.06;18.63
32761;BME280;19126;47.472;7.850;2023-02-24T08:42:59;95866.84;;;5.06;17.97
32761;BME280;19126;47.472;7.850;2023-02-24T08:45:41;95862.94;;;5.02;18.11
32761;BME280;19126;47.472;7.850;2023-02-24T08:48:10;95855.31;;;5.09;17.85
32761;BME280;19126;47.472;7.850;2023-02-24T08:50:53;95858.72;;;5.09;17.97
32761;BME280;19126;47.472;7.850;2023-02-24T08:53:27;95852.88;;;5.07;17.93
32761;BME280;19126;47.472;7.850;2023-02-24T08:55:59;95852.38;;;5.04;17.95
32761;BME280;19126;47.472;7.850;2023-02-24T08:58:34;95845.59;;;5.27;18.11
32761;BME280;19126;47.472;7.850;2023-02-24T09:01:10;95844.84;;;5.43;17.92
32761;BME280;19126;47.472;7.850;2023-02-24T09:03:44;95846.28;;;5.46;17.50
32761;BME280;19126;47.472;7.850;2023-02-24T09:06:12;95847.75;;;5.49;17.41
32761;BME280;19126;47.472;7.850;2023-02-24T09:08:44;95843.34;;;5.49;17.27
32761;BME280;19126;47.472;7.850;2023-02-24T09:11:13;95848.25;;;5.77;17.27
32761;BME280;19126;47.472;7.850;2023-02-24T09:13:43;95847.44;;;5.68;17.17
32761;BME280;19126;47.472;7.850;2023-02-24T09:16:18;95837.34;;;5.74;17.33
32761;BME280;19126;47.472;7.850;2023-02-24T09:18:45;95821.06;;;5.47;17.49
32761;BME280;19126;47.472;7.850;2023-02-24T09:21:33;95822.38;;;5.51;17.37
32761;BME280;19126;47.472;7.850;2023-02-24T09:24:19;95825.63;;;5.69;17.40
32761;BME280;19126;47.472;7.850;2023-02-24T09:26:52;95816.16;;;5.93;17.56
32761;BME280;19126;47.472;7.850;2023-02-24T09:29:23;95816.16;;;6.18;17.58
32761;BME280;19126;47.472;7.850;2023-02-24T09:32:03;95819.50;;;6.43;18.25
32761;BME280;19126;47.472;7.850;2023-02-24T09:34:32;95812.84;;;6.41;18.80
32761;BME280;19126;47.472;7.850;2023-02-24T09:36:59;95811.22;;;6.32;20.61
32761;BME280;19126;47.472;7.850;2023-02-24T09:39:32;95805.94;;;6.56;21.88
32761;BME280;19126;47.472;7.850;2023-02-24T09:42:21;95799.16;;;6.79;24.26
32761;BME280;19126;47.472;7.850;2023-02-24T09:45:06;95794.97;;;7.24;28.28
32761;BME280;19126;47.472;7.850;2023-02-24T09:47:39;95794.88;;;7.79;34.07
32761;BME280;19126;47.472;7.850;2023-02-24T09:50:25;95800.91;;;8.18;48.14
32761;BME280;19126;47.472;7.850;2023-02-24T09:52:56;95794.88;;;8.32;62.31
32761;BME280;19126;47.472;7.850;2023-02-24T09:55:45;95798.97;;;8.50;79.40
32761;BME280;19126;47.472;7.850;2023-02-24T09:58:38;95794.38;;;8.89;89.35
32761;BME280;19126;47.472;7.850;2023-02-24T10:01:27;95782.03;;;9.19;100.00
32761;BME280;19126;47.472;7.850;2023-02-24T10:04:01;95780.63;;;9.67;100.00
32761;BME280;19126;47.472;7.850;2023-02-24T10:06:36;95779.53;;;10.05;100.00
32761;BME280;19126;47.472;7.850;2023-02-24T10:09:17;95769.06;;;10.47;100.00
32761;BME280;19126;47.472;7.850;2023-02-24T10:11:52;95762.13;;;10.67;100.00
32761;BME280;19126;47.472;7.850;2023-02-24T10:14:24;95764.75;;;10.67;100.00
32761;BME280;19126;47.472;7.850;2023-02-24T10:16:54;95757.28;;;10.71;100.00
32761;BME280;19126;47.472;7.850;2023-02-24T10:19:38;95754.56;;;11.06;100.00
32761;BME280;19126;47.472;7.850;2023-02-24T10:22:11;95757.25;;;11.53;100.00
32761;BME280;19126;47.472;7.850;2023-02-24T10:24:57;95753.00;;;11.59;100.00
32761;BME280;19126;47.472;7.850;2023-02-24T10:27:40;95756.25;;;11.81;100.00
32761;BME280;19126;47.472;7.850;2023-02-24T10:30:27;95750.78;;;11.69;100.00
32761;BME280;19126;47.472;7.850;2023-02-24T10:33:13;95745.91;;;11.66;100.00
32761;BME280;19126;47.472;7.850;2023-02-24T10:35:43;95748.75;;;11.85;100.00
32761;BME280;19126;47.472;7.850;2023-02-24T10:38:10;95748.94;;;11.90;99.27
32761;BME280;19126;47.472;7.850;2023-02-24T10:40:45;95752.19;;;12.19;96.25
32761;BME280;19126;47.472;7.850;2023-02-24T10:43:17;95740.53;;;12.60;99.60
32761;BME280;19126;47.472;7.850;2023-02-24T10:45:45;95743.66;;;12.83;96.48
32761;BME280;19126;47.472;7.850;2023-02-24T10:48:17;95737.38;;;13.23;98.52
32761;BME280;19126;47.472;7.850;2023-02-24T10:50:51;95743.00;;;13.65;98.26
32761;BME280;19126;47.472;7.850;2023-02-24T10:53:27;95736.97;;;13.83;94.54
32761;BME280;19126;47.472;7.850;2023-02-24T10:56:03;95743.31;;;14.19;95.42
32761;BME280;19126;47.472;7.850;2023-02-24T10:59:01;95745.91;;;14.45;91.24
32761;BME280;19126;47.472;7.850;2023-02-24T11:01:42;95736.59;;;14.61;89.72
32761;BME280;19126;47.472;7.850;2023-02-24T11:04:20;95733.00;;;14.74;88.19
32761;BME280;19126;47.472;7.850;2023-02-24T11:07:12;95734.97;;;14.78;87.59
32761;BME280;19126;47.472;7.850;2023-02-24T11:10:02;95725.56;;;14.83;85.09
32761;BME280;19126;47.472;7.850;2023-02-24T11:12:37;95728.47;;;14.93;85.05
32761;BME280;19126;47.472;7.850;2023-02-24T11:15:31;95726.28;;;14.90;84.04
32761;BME280;19126;47.472;7.850;2023-02-24T11:18:18;95709.56;;;14.77;84.70
32761;BME280;19126;47.472;7.850;2023-02-24T11:20:47;95709.84;;;14.88;84.17
32761;BME280;19126;47.472;7.850;2023-02-24T11:23:18;95703.31;;;14.90;83.89
32761;BME280;19126;47.472;7.850;2023-02-24T11:25:47;95702.34;;;14.85;83.55
32761;BME280;19126;47.472;7.850;2023-02-24T11:28:20;95694.97;;;14.19;84.51
32761;BME280;19126;47.472;7.850;2023-02-24T11:30:54;95682.03;;;13.92;85.93
32761;BME280;19126;47.472;7.850;2023-02-24T11:33:28;95684.41;;;14.00;86.65
32761;BME280;19126;47.472;7.850;2023-02-24T11:36:03;95667.03;;;14.11;88.55
32761;BME280;19126;47.472;7.850;2023-02-24T11:38:39;95666.16;;;13.99;88.48
32761;BME280;19126;47.472;7.850;2023-02-24T11:41:16;95648.28;;;14.31;88.75
32761;BME280;19126;47.472;7.850;2023-02-24T11:43:54;95646.63;;;14.18;87.75
32761;BME280;19126;47.472;7.850;2023-02-24T11:46:30;95646.78;;;13.86;85.86
32761;BME280;19126;47.472;7.850;2023-02-24T11:49:00;95640.59;;;14.30;87.67
32761;BME280;19126;47.472;7.850;2023-02-24T11:51:33;95649.09;;;14.50;88.41
32761;BME280;19126;47.472;7.850;2023-02-24T11:54:03;95653.09;;;14.53;89.15
32761;BME280;19126;47.472;7.850;2023-02-24T11:56:33;95636.78;;;14.26;87.20
32761;BME280;19126;47.472;7.850;2023-02-24T11:59:04;95630.78;;;14.18;87.89
32761;BME280;19126;47.472;7.850;2023-02-24T12:01:39;95628.88;;;14.07;89.83
32761;BME280;19126;47.472;7.850;2023-02-24T12:04:12;95631.13;;;13.85;89.33
32761;BME280;19126;47.472;7.850;2023-02-24T12:06:55;95629.03;;;13.75;90.27
32761;BME280;19126;47.472;7.850;2023-02-24T12:09:27;95613.63;;;13.72;90.88
32761;BME280;19126;47.472;7.850;2023-02-24T12:11:57;95604.09;;;13.71;89.38
32761;BME280;19126;47.472;7.850;2023-02-24T12:14:32;95608.06;;;13.80;92.72
32761;BME280;19126;47.472;7.850;2023-02-24T12:17:10;95599.69;;;13.65;91.89
32761;BME280;19126;47.472;7.850;2023-02-24T12:19:50;95594.59;;;13.44;91.27
32761;BME280;19126;47.472;7.850;2023-02-24T12:22:19;95591.31;;;13.24;91.66
32761;BME280;19126;47.472;7.850;2023-02-24T12:24:50;95586.84;;;12.99;92.89
32761;BME280;19126;47.472;7.850;2023-02-24T12:27:33;95587.63;;;12.74;94.64
32761;BME280;19126;47.472;7.850;2023-02-24T12:30:19;95587.25;;;12.70;94.92
32761;BME280;19126;47.472;7.850;2023-02-24T12:32:59;95582.66;;;12.59;95.08
32761;BME280;19126;47.472;7.850;2023-02-24T12:35:40;95582.53;;;12.47;97.42
32761;BME280;19126;47.472;7.850;2023-02-24T12:38:24;95579.75;;;12.35;98.28
32761;BME280;19126;47.472;7.850;2023-02-24T12:41:03;95577.13;;;12.35;98.39
32761;BME280;19126;47.472;7.850;2023-02-24T12:43:37;95575.13;;;12.30;99.82
32761;BME280;19126;47.472;7.850;2023-02-24T12:46:12;95575.13;;;12.30;99.16
32761;BME280;19126;47.472;7.850;2023-02-24T12:51:54;95568.91;;;12.18;97.71
32761;BME280;19126;47.472;7.850;2023-02-24T12:54:28;95571.69;;;12.30;97.68
32761;BME280;19126;47.472;7.850;2023-02-24T12:56:59;95569.78;;;12.44;98.34
32761;BME280;19126;47.472;7.850;2023-02-24T12:59:30;95568.09;;;12.56;96.97
32761;BME280;19126;47.472;7.850;2023-02-24T13:02:00;95568.44;;;12.67;89.96
32761;BME280;19126;47.472;7.850;2023-02-24T13:04:35;95557.41;;;12.77;91.40
32761;BME280;19126;47.472;7.850;2023-02-24T13:07:11;95554.13;;;12.81;88.57
32761;BME280;19126;47.472;7.850;2023-02-24T13:09:47;95554.94;;;12.82;89.21
32761;BME280;19126;47.472;7.850;2023-02-24T13:12:19;95544.50;;;12.68;86.21
32761;BME280;19126;47.472;7.850;2023-02-24T13:14:51;95538.72;;;12.53;86.28
32761;BME280;19126;47.472;7.850;2023-02-24T13:17:20;95540.25;;;12.35;87.83
32761;BME280;19126;47.472;7.850;2023-02-24T13:19:54;95530.81;;;12.21;88.89
32761;BME280;19126;47.472;7.850;2023-02-24T13:22:27;95519.69;;;12.19;90.78
32761;BME280;19126;47.472;7.850;2023-02-24T13:24:58;95525.13;;;12.24;90.75
32761;BME280;19126;47.472;7.850;2023-02-24T13:27:28;95514.50;;;12.37;90.43
32761;BME280;19126;47.472;7.850;2023-02-24T13:29:56;95528.69;;;12.36;90.34
32761;BME280;19126;47.472;7.850;2023-02-24T13:32:27;95522.63;;;12.36;90.19
32761;BME280;19126;47.472;7.850;2023-02-24T13:34:58;95513.31;;;12.33;89.65
32761;BME280;19126;47.472;7.850;2023-02-24T13:37:34;95516.00;;;12.26;88.96
32761;BME280;19126;47.472;7.850;2023-02-24T13:40:23;95513.03;;;12.16;89.16
32761;BME280;19126;47.472;7.850;2023-02-24T13:43:00;95510.66;;;12.08;90.58
32761;BME280;19126;47.472;7.850;2023-02-24T13:45:29;95509.38;;;12.17;91.61
32761;BME280;19126;47.472;7.850;2023-02-24T13:51:11;95500.16;;;12.33;92.37
32761;BME280;19126;47.472;7.850;2023-02-24T13:53:54;95499.53;;;12.38;90.77
32761;BME280;19126;47.472;7.850;2023-02-24T13:56:32;95506.28;;;12.27;89.61
32761;BME280;19126;47.472;7.850;2023-02-24T13:59:16;95494.59;;;12.16;89.24
32761;BME280;19126;47.472;7.850;2023-02-24T14:01:55;95491.81;;;12.04;89.50